Aspinwall, Iowa
Current Conditions -  °F | °C
As of 12:55 AM on Friday 31 Oct 2014 (Local Time) from KDNS Reporting Station
Overcast Overcast  
Wind Chill: 25°   Ceiling: 2600
Heat Index: 36°   Visibility: 10mi
Dew Point: 25°   Wind: 18mph
Humidity: 65%   Direction: 340°NNW
Pressure: 30.39"   Gusts: 28mph
Location:  41.91°N, 95.14°W
Report Text: KDNS 310555Z AUTO 34016G24KT 10SM OVC026 02/M04 A3039 RMK AO2
Loading
Personal Weather Stations






























Interactive Weather Map
Tropical Storm Tracking
New forecast layout! Learn more

10-Day Weather Forecast

Advertisements
Track Severe Weather on mobile